Time;durP1;ratioP1;P1;durP2;ratioP2;P2;SDS_P1;SDS_P2;PMS_P1;PMS_P2;Temp;Humidity;BMP_temperature;BMP_pressure;BME280_temperature;BME280_humidity;BME280_pressure;Samples;Min_cycle;Max_cycle;Signal;HPM_P1;HPM_P2
2022/02/24 00:01:00;;;;;;;7.00;2.85;;;1.60;66.10;;;0.15;51.19;95558.06;6129149;23;20200;-81
2022/02/24 00:03:28;;;;;;;8.40;3.38;;;1.60;67.10;;;0.14;51.32;95561.59;6105666;23;20176;-82
2022/02/24 00:05:56;;;;;;;7.35;3.30;;;1.50;66.30;;;0.12;51.44;95553.97;6129758;23;20193;-81
2022/02/24 00:08:24;;;;;;;10.30;4.25;;;1.50;66.40;;;0.11;51.62;95554.91;6105389;23;20515;-82
2022/02/24 00:10:52;;;;;;;8.82;4.80;;;1.50;66.50;;;0.19;51.88;95561.25;6105935;23;20221;-82
2022/02/24 00:13:19;;;;;;;9.52;4.75;;;1.50;66.70;;;0.23;51.90;95557.50;6129456;23;20181;-82
2022/02/24 00:15:46;;;;;;;8.80;4.78;;;1.50;66.80;;;0.27;51.56;95559.75;6129496;23;20222;-83
2022/02/24 00:18:13;;;;;;;10.10;5.30;;;1.50;66.90;;;0.28;51.54;95555.41;6105578;23;20170;-82
2022/02/24 00:20:40;;;;;;;9.13;5.00;;;1.50;66.90;;;0.30;51.40;95563.88;6104777;23;20201;-82
2022/02/24 00:23:07;;;;;;;10.40;5.15;;;1.60;67.00;;;0.31;51.74;95556.00;6105215;23;20173;-83
2022/02/24 00:25:35;;;;;;;12.25;5.35;;;1.60;66.90;;;0.29;51.75;95545.00;6080549;23;20224;-82
2022/02/24 00:28:02;;;;;;;12.23;5.07;;;1.60;66.90;;;0.27;51.71;95549.44;6129826;23;20169;-81
2022/02/24 00:30:29;;;;;;;10.45;5.22;;;1.60;67.80;;;0.25;51.82;95550.50;6105419;23;20207;-82
2022/02/24 00:32:56;;;;;;;9.68;5.18;;;1.60;66.90;;;0.18;51.81;95547.53;6105149;23;20176;-82
2022/02/24 00:35:23;;;;;;;12.38;5.38;;;1.60;66.80;;;0.18;51.81;95538.97;6105631;23;20225;-82
2022/02/24 00:37:50;;;;;;;9.30;4.93;;;1.60;66.90;;;0.15;51.92;95540.03;6105166;23;20225;-82
2022/02/24 00:40:18;;;;;;;9.35;5.22;;;1.50;66.80;;;0.13;52.07;95534.94;6080735;23;20652;-82
2022/02/24 00:42:45;;;;;;;9.30;4.95;;;1.50;66.90;;;0.11;52.05;95538.56;6129850;23;20174;-83
2022/02/24 00:45:12;;;;;;;10.85;5.55;;;1.50;67.80;;;0.07;52.41;95529.44;6129350;23;20189;-82
2022/02/24 00:47:40;;;;;;;8.70;5.10;;;1.50;66.90;;;0.04;51.84;95530.47;6104826;23;20173;-82
2022/02/24 00:50:07;;;;;;;12.25;5.78;;;1.50;66.90;;;0.00;51.91;95523.91;6129416;23;20213;-82
2022/02/24 00:52:34;;;;;;;10.88;5.22;;;1.40;66.80;;;-0.03;52.11;95524.13;6104904;23;20173;-82
2022/02/24 00:55:03;;;;;;;12.00;5.72;;;1.40;66.80;;;-0.05;51.99;95525.97;6105480;23;20244;-82
2022/02/24 00:57:30;;;;;;;12.77;5.65;;;1.40;66.80;;;-0.08;52.16;95513.31;6128818;23;20201;-81
2022/02/24 00:59:57;;;;;;;7.25;4.82;;;1.30;66.80;;;-0.11;52.06;95514.38;6128573;23;20579;-82
2022/02/24 01:02:24;;;;;;;9.00;4.93;;;1.30;67.00;;;-0.12;52.22;95502.41;6129711;23;20537;-82
2022/02/24 01:04:51;;;;;;;7.55;4.88;;;1.30;67.10;;;-0.18;52.04;95508.81;6104958;23;20201;-81
2022/02/24 01:07:19;;;;;;;7.43;4.72;;;1.30;67.10;;;-0.16;52.20;95498.38;6105292;23;20253;-82
2022/02/24 01:09:46;;;;;;;8.73;4.45;;;1.30;67.10;;;-0.23;52.19;95487.72;6081022;23;20209;-82
2022/02/24 01:12:13;;;;;;;9.57;5.05;;;1.20;67.20;;;-0.17;52.13;95494.19;6104550;23;20232;-82
2022/02/24 01:14:41;;;;;;;7.00;4.35;;;1.20;67.30;;;-0.21;52.53;95491.00;6105044;23;20200;-82
2022/02/24 01:17:08;;;;;;;7.75;4.50;;;1.30;67.50;;;-0.20;52.68;95487.47;6128519;23;20591;-81
2022/02/24 01:19:35;;;;;;;7.80;4.53;;;1.20;67.50;;;-0.19;53.16;95483.97;6129147;23;20571;-82
2022/02/24 01:22:02;;;;;;;8.75;4.10;;;1.20;67.50;;;-0.20;52.79;95481.50;6129573;23;20196;-82
2022/02/24 01:24:30;;;;;;;10.50;4.40;;;1.20;67.60;;;-0.18;52.89;95472.72;6105393;23;20201;-81
2022/02/24 01:26:57;;;;;;;9.18;4.65;;;1.20;67.70;;;-0.21;52.95;95466.97;6103637;23;20177;-81
2022/02/24 01:29:24;;;;;;;6.68;4.07;;;1.10;67.70;;;-0.13;53.15;95477.56;6104824;23;20656;-82
2022/02/24 01:31:51;;;;;;;7.97;4.45;;;1.20;67.80;;;-0.13;53.15;95482.72;6104700;23;20617;-82
2022/02/24 01:34:19;;;;;;;9.15;4.35;;;1.20;67.80;;;-0.12;52.84;95471.47;6104989;23;20676;-82
2022/02/24 01:36:47;;;;;;;6.80;4.28;;;1.20;67.90;;;-0.10;53.53;95471.34;6131281;23;20193;-82
2022/02/24 01:39:14;;;;;;;6.47;4.18;;;1.20;67.90;;;-0.09;53.14;95463.50;6106566;23;20177;-81
2022/02/24 01:41:42;;;;;;;7.30;3.75;;;1.20;67.90;;;-0.09;53.24;95458.34;6130849;23;20605;-82
2022/02/24 01:44:13;;;;;;;7.88;4.13;;;1.20;68.00;;;-0.07;53.18;95453.09;6130893;23;20602;-81
2022/02/24 01:46:42;;;;;;;7.38;3.70;;;1.30;68.50;;;-0.05;53.45;95456.34;6105927;23;20280;-81
2022/02/24 01:49:11;;;;;;;9.20;3.88;;;1.20;68.10;;;-0.09;53.25;95442.88;6130706;23;20212;-81
2022/02/24 01:51:39;;;;;;;9.60;3.92;;;1.20;68.00;;;-0.04;53.07;95448.53;6106429;23;20526;-81
2022/02/24 01:54:07;;;;;;;6.78;3.67;;;1.20;68.10;;;-0.07;53.26;95441.00;6130960;23;20617;-82
2022/02/24 01:56:35;;;;;;;7.22;3.63;;;1.20;68.00;;;-0.07;53.28;95435.03;6106544;23;20204;-81
2022/02/24 01:59:03;;;;;;;8.68;3.90;;;1.20;68.00;;;-0.04;53.38;95443.38;6130753;23;20193;-82
2022/02/24 02:01:31;;;;;;;5.88;3.53;;;1.20;68.00;;;-0.07;53.24;95435.84;6130434;23;20240;-82
2022/02/24 02:04:00;;;;;;;7.57;3.65;;;1.30;68.10;;;-0.06;53.26;95437.50;6131087;23;20165;-82
2022/02/24 02:06:27;;;;;;;6.70;3.90;;;1.20;68.00;;;-0.08;53.37;95434.19;6106592;23;20487;-82
2022/02/24 02:08:54;;;;;;;7.35;3.47;;;1.30;68.10;;;-0.04;53.39;95434.78;6106843;23;20201;-82
2022/02/24 02:11:21;;;;;;;9.50;3.72;;;1.20;68.10;;;-0.06;53.28;95434.06;6106299;23;20228;-82
2022/02/24 02:13:49;;;;;;;9.50;4.32;;;1.20;68.00;;;-0.07;52.99;95435.84;6106906;23;20177;-82
2022/02/24 02:16:16;;;;;;;6.18;3.70;;;1.20;68.10;;;-0.07;53.34;95422.97;6131189;23;20238;-82
2022/02/24 02:18:43;;;;;;;6.15;3.95;;;1.20;68.10;;;-0.07;53.49;95417.78;6106420;23;20181;-81
2022/02/24 02:21:10;;;;;;;8.93;3.83;;;1.20;68.10;;;-0.14;53.49;95411.44;6105871;23;20198;-81
2022/02/24 02:23:37;;;;;;;6.97;3.45;;;1.20;68.10;;;-0.08;53.17;95416.16;6105518;23;20197;-81
2022/02/24 02:26:05;;;;;;;5.38;3.67;;;1.20;68.10;;;-0.11;53.21;95418.97;6106111;23;20208;-80
2022/02/24 02:28:32;;;;;;;6.78;3.92;;;1.20;68.10;;;-0.13;53.26;95409.72;6130380;23;20181;-82
2022/02/24 02:30:59;;;;;;;10.07;3.97;;;1.20;68.10;;;-0.16;53.15;95413.31;6130299;23;20644;-81
2022/02/24 02:33:27;;;;;;;7.40;3.97;;;1.20;68.10;;;-0.17;53.18;95409.94;6130343;23;20636;-82
2022/02/24 02:35:54;;;;;;;5.88;4.18;;;1.20;68.10;;;-0.23;53.37;95396.66;6106313;23;20205;-82
2022/02/24 02:38:21;;;;;;;7.85;3.85;;;1.20;68.10;;;-0.22;53.52;95404.28;6130823;23;20174;-82
2022/02/24 02:40:49;;;;;;;9.27;4.22;;;1.20;68.20;;;-0.22;53.60;95391.41;6129206;23;20197;-80
2022/02/24 02:43:16;;;;;;;9.10;4.50;;;1.10;68.20;;;-0.22;53.17;95388.00;6105814;23;20182;-82
2022/02/24 02:45:43;;;;;;;6.63;3.85;;;1.10;68.20;;;-0.23;53.60;95389.75;6106079;23;20197;-82
2022/02/24 02:48:10;;;;;;;9.73;4.28;;;1.10;68.30;;;-0.23;53.49;95384.59;6105819;23;20188;-81
2022/02/24 02:50:38;;;;;;;9.80;4.75;;;1.10;69.30;;;-0.23;53.67;95379.44;6105530;23;20205;-81
2022/02/24 02:53:06;;;;;;;7.97;4.32;;;1.20;68.50;;;-0.24;53.93;95377.78;6154398;23;20211;-82
2022/02/24 02:55:34;;;;;;;7.45;4.68;;;1.10;68.60;;;-0.21;53.80;95374.16;6106369;23;20201;-81
2022/02/24 02:58:01;;;;;;;8.95;4.47;;;1.10;68.60;;;-0.20;53.69;95363.72;6105352;23;20264;-81
2022/02/24 03:00:28;;;;;;;9.38;4.93;;;1.10;68.60;;;-0.23;53.52;95360.56;6128557;23;20205;-82
2022/02/24 03:02:55;;;;;;;7.60;4.55;;;1.10;68.70;;;-0.21;53.95;95359.53;6130205;23;20177;-81
2022/02/24 03:05:23;;;;;;;7.80;4.20;;;1.10;69.70;;;-0.21;53.75;95359.53;6105820;23;20200;-81
2022/02/24 03:07:50;;;;;;;10.52;4.80;;;1.10;68.70;;;-0.21;53.80;95354.38;6106053;23;20224;-82
2022/02/24 03:10:17;;;;;;;11.10;5.20;;;1.10;68.80;;;-0.28;53.96;95342.88;6105773;23;20533;-82
2022/02/24 03:12:45;;;;;;;9.82;5.38;;;1.10;68.80;;;-0.23;53.98;95345.09;6081808;23;20188;-81
2022/02/24 03:15:15;;;;;;;11.27;5.18;;;1.10;68.80;;;-0.26;54.05;95338.41;6106127;23;20197;-82
2022/02/24 03:17:46;;;;;;;8.18;4.97;;;1.10;68.90;;;-0.23;54.00;95340.78;6105422;23;20169;-81
2022/02/24 03:20:15;;;;;;;8.20;4.85;;;1.10;68.90;;;-0.24;53.80;95335.75;6130017;23;20212;-82
2022/02/24 03:22:43;;;;;;;10.77;5.18;;;1.10;68.80;;;-0.26;53.99;95338.41;6129859;23;20204;-81
2022/02/24 03:25:11;;;;;;;9.45;5.00;;;1.10;68.70;;;-0.28;53.77;95334.31;6130447;23;20531;-81
2022/02/24 03:27:38;;;;;;;9.13;4.70;;;1.10;68.80;;;-0.33;53.87;95320.03;6129995;23;20228;-82
2022/02/24 03:30:06;;;;;;;9.43;4.78;;;1.00;68.60;;;-0.34;53.82;95322.72;6105583;23;20609;-82
2022/02/24 03:32:35;;;;;;;9.68;5.18;;;1.00;68.60;;;-0.37;54.14;95317.78;6129966;23;20256;-82
2022/02/24 03:35:04;;;;;;;10.88;5.32;;;1.00;68.70;;;-0.40;54.15;95321.41;6106368;23;20332;-82
2022/02/24 03:37:32;;;;;;;9.05;5.40;;;1.00;68.80;;;-0.43;54.35;95315.66;6128565;23;20177;-81
2022/02/24 03:39:59;;;;;;;12.13;5.45;;;1.00;68.80;;;-0.42;54.09;95310.38;6105517;23;20207;-82
2022/02/24 03:42:28;;;;;;;8.85;5.00;;;0.90;68.80;;;-0.41;54.42;95316.38;6129615;23;20178;-82
2022/02/24 03:44:59;;;;;;;9.85;5.35;;;0.90;69.10;;;-0.48;54.54;95297.97;6107615;23;20185;-81
2022/02/24 03:47:27;;;;;;;10.27;4.72;;;0.90;69.00;;;-0.41;54.33;95306.06;6130339;23;20173;-82
2022/02/24 03:49:55;;;;;;;10.40;5.50;;;0.90;69.00;;;-0.42;54.11;95310.38;6105633;23;20213;-81
2022/02/24 03:52:22;;;;;;;8.10;4.80;;;0.90;69.00;;;-0.43;54.15;95307.94;6105850;23;20228;-82
2022/02/24 03:54:50;;;;;;;7.40;4.60;;;0.90;69.10;;;-0.45;54.41;95307.22;6081521;23;20656;-82
2022/02/24 03:57:18;;;;;;;6.95;4.25;;;1.00;69.20;;;-0.49;54.20;95301.47;6104711;23;20562;-82
2022/02/24 03:59:45;;;;;;;7.95;4.13;;;0.90;69.10;;;-0.55;54.05;95295.03;6105168;23;20205;-81
2022/02/24 04:02:13;;;;;;;6.18;4.43;;;0.90;69.00;;;-0.52;54.40;95299.94;6130028;23;20204;-81
2022/02/24 04:04:42;;;;;;;8.25;4.45;;;0.90;69.20;;;-0.53;54.21;95303.47;6105442;23;20703;-82
2022/02/24 04:07:10;;;;;;;7.32;4.05;;;0.90;70.10;;;-0.49;54.35;95311.78;6129853;23;20268;-82
2022/02/24 04:09:38;;;;;;;7.30;3.85;;;0.80;69.10;;;-0.54;54.09;95298.41;6081978;23;20197;-81
2022/02/24 04:12:15;;;;;;;6.05;3.72;;;0.80;69.00;;;-0.55;53.83;95300.19;6106947;23;20196;-82
2022/02/24 04:14:44;;;;;;;8.65;4.28;;;0.80;68.90;;;-0.56;54.25;95298.53;6103966;23;20197;-81
2022/02/24 04:17:14;;;;;;;9.50;4.57;;;0.80;68.90;;;-0.58;54.12;95294.44;6129395;23;20200;-82
2022/02/24 04:19:41;;;;;;;5.40;3.80;;;0.80;68.90;;;-0.63;54.17;95292.19;6129461;23;20204;-81
2022/02/24 04:22:09;;;;;;;7.32;4.28;;;0.80;68.80;;;-0.66;54.33;95290.69;6104986;23;20177;-81
2022/02/24 04:24:36;;;;;;;8.15;3.92;;;0.70;68.80;;;-0.68;53.96;95284.81;6128716;23;20522;-81
2022/02/24 04:27:04;;;;;;;7.93;4.25;;;0.70;68.80;;;-0.74;54.11;95266.44;6129411;23;20177;-82
2022/02/24 04:29:31;;;;;;;10.25;4.00;;;0.70;68.90;;;-0.70;54.20;95268.63;6104743;23;20197;-82
2022/02/24 04:31:59;;;;;;;7.70;4.40;;;0.70;69.00;;;-0.74;54.42;95248.41;6129397;23;20560;-82
2022/02/24 04:34:26;;;;;;;6.57;4.05;;;0.70;69.10;;;-0.68;54.41;95255.66;6128392;23;20201;-82
2022/02/24 04:36:53;;;;;;;6.30;4.03;;;0.60;69.20;;;-0.70;54.57;95242.88;6105224;23;20180;-82
2022/02/24 04:39:21;;;;;;;6.07;4.10;;;0.60;69.30;;;-0.71;54.18;95230.97;6105264;23;20260;-81
2022/02/24 04:41:48;;;;;;;7.10;3.83;;;0.60;69.30;;;-0.73;54.26;95222.53;6129226;23;20170;-82
2022/02/24 04:44:15;;;;;;;8.57;4.10;;;0.60;69.30;;;-0.69;54.02;95236.78;6129682;23;20173;-82
2022/02/24 04:46:42;;;;;;;6.82;4.00;;;0.60;69.30;;;-0.66;54.36;95241.72;6105475;23;20197;-81
2022/02/24 04:49:10;;;;;;;7.28;4.25;;;0.60;69.30;;;-0.65;54.30;95242.53;6129202;23;20181;-82
2022/02/24 04:51:37;;;;;;;5.95;3.83;;;0.70;69.30;;;-0.66;54.25;95248.63;6103607;23;20243;-82
2022/02/24 04:54:05;;;;;;;6.00;3.85;;;0.60;69.30;;;-0.65;54.27;95260.56;6104539;23;20213;-82
2022/02/24 04:56:33;;;;;;;7.35;4.35;;;0.60;69.30;;;-0.65;54.25;95253.69;6105141;23;20181;-83
2022/02/24 04:59:00;;;;;;;8.50;5.18;;;0.70;69.40;;;-0.63;54.24;95256.13;6129327;23;20178;-83
2022/02/24 05:01:28;;;;;;;11.43;5.85;;;0.70;69.30;;;-0.64;54.24;95254.50;6128730;23;20185;-83
2022/02/24 05:03:56;;;;;;;10.75;7.03;;;0.70;69.40;;;-0.65;54.21;95258.84;6104690;23;20188;-83
2022/02/24 05:06:23;;;;;;;14.55;8.48;;;0.70;69.40;;;-0.70;54.12;95252.38;6104712;23;20194;-82
2022/02/24 05:08:50;;;;;;;12.77;7.55;;;0.60;69.30;;;-0.72;54.23;95254.22;6129411;23;20191;-82
2022/02/24 05:11:20;;;;;;;11.25;6.70;;;0.60;69.30;;;-0.76;54.11;95256.22;6131584;23;20193;-83
2022/02/24 05:13:47;;;;;;;13.32;6.28;;;0.60;69.20;;;-0.79;54.40;95251.31;6082986;23;20181;-82
2022/02/24 05:16:14;;;;;;;10.10;5.57;;;0.60;69.30;;;-0.82;54.28;95241.22;6107455;23;20288;-81
2022/02/24 05:18:42;;;;;;;7.68;4.45;;;0.60;69.30;;;-0.86;54.59;95220.03;6130565;23;20643;-82
2022/02/24 05:21:09;;;;;;;12.05;5.22;;;0.60;69.30;;;-0.81;54.68;95232.56;6107736;23;20213;-82
2022/02/24 05:23:37;;;;;;;7.93;4.50;;;0.60;69.30;;;-0.83;54.59;95218.97;6106505;23;20184;-82
2022/02/24 05:26:04;;;;;;;9.10;4.63;;;0.50;69.20;;;-0.74;54.80;95217.50;6082986;23;20201;-83
2022/02/24 05:28:32;;;;;;;6.63;4.55;;;0.60;69.30;;;-0.71;54.63;95225.81;6130543;23;20252;-81
2022/02/24 05:31:00;;;;;;;6.05;3.85;;;0.50;69.20;;;-0.67;54.65;95231.56;6131216;23;20197;-82
2022/02/24 05:33:29;;;;;;;7.35;4.00;;;0.60;69.30;;;-0.66;55.08;95217.72;6107129;23;20181;-82
2022/02/24 05:35:57;;;;;;;5.20;3.92;;;0.60;69.30;;;-0.59;54.93;95221.47;6131591;23;20423;-81
2022/02/24 05:38:24;;;;;;;4.78;3.50;;;0.60;69.30;;;-0.56;54.99;95221.25;6083103;23;20700;-81
2022/02/24 05:40:52;;;;;;;6.82;3.70;;;0.70;69.40;;;-0.57;54.61;95211.06;6131192;23;20185;-82
2022/02/24 05:43:19;;;;;;;8.32;4.05;;;0.70;69.30;;;-0.54;54.75;95215.97;6131273;23;20620;-82
2022/02/24 05:45:46;;;;;;;5.55;3.95;;;0.70;69.40;;;-0.47;54.95;95230.03;6105983;23;20197;-82
2022/02/24 05:48:13;;;;;;;6.63;3.30;;;0.70;69.30;;;-0.50;54.87;95219.94;6131165;23;20177;-82
2022/02/24 05:50:41;;;;;;;8.38;3.63;;;0.70;69.40;;;-0.39;54.82;95227.72;6106636;23;20537;-81
2022/02/24 05:53:09;;;;;;;5.97;3.28;;;0.80;69.50;;;-0.35;55.18;95216.22;6107101;23;20169;-82
2022/02/24 05:55:36;;;;;;;5.65;3.20;;;0.80;69.50;;;-0.31;55.06;95219.38;6082840;23;20255;-82
2022/02/24 05:58:04;;;;;;;6.85;3.40;;;0.90;69.70;;;-0.28;55.26;95210.59;6128921;23;20182;-82
2022/02/24 06:00:32;;;;;;;15.80;3.15;;;0.90;69.80;;;-0.21;55.27;95212.59;6105271;23;20244;-82
2022/02/24 06:02:59;;;;;;;16.60;4.05;;;0.90;69.60;;;-0.16;55.08;95212.22;6106170;23;20266;-82
2022/02/24 06:05:27;;;;;;;10.63;4.90;;;0.90;69.70;;;-0.13;54.63;95208.63;6106266;23;20256;-82
2022/02/24 06:07:54;;;;;;;10.02;4.47;;;1.00;69.60;;;-0.20;54.57;95201.31;6103864;23;20583;-82
2022/02/24 06:10:22;;;;;;;8.75;5.13;;;1.00;69.50;;;-0.13;54.74;95201.69;6103283;23;20288;-82
2022/02/24 06:12:50;;;;;;;8.30;5.22;;;1.00;69.60;;;-0.16;54.78;95196.75;6103327;23;20177;-82
2022/02/24 06:15:17;;;;;;;8.40;5.30;;;1.00;70.40;;;-0.13;54.81;95201.69;6127605;23;20201;-83
2022/02/24 06:17:44;;;;;;;8.77;5.22;;;1.10;69.60;;;-0.12;54.41;95199.91;6127648;23;20169;-82
2022/02/24 06:20:12;;;;;;;10.50;5.22;;;1.10;69.60;;;-0.11;54.72;95193.81;6127751;23;20712;-81
2022/02/24 06:22:39;;;;;;;7.75;5.50;;;1.10;69.60;;;-0.16;54.73;95183.88;6152429;23;20173;-83
2022/02/24 06:25:07;;;;;;;9.85;5.35;;;1.10;69.60;;;-0.13;55.04;95180.25;6103224;23;20684;-82
2022/02/24 06:27:35;;;;;;;8.70;5.18;;;1.10;69.70;;;-0.05;54.81;95194.19;6103552;23;20667;-82
2022/02/24 06:30:03;;;;;;;7.43;4.38;;;1.10;69.70;;;-0.02;54.74;95183.63;6079222;23;20194;-82
2022/02/24 06:32:31;;;;;;;7.90;4.35;;;1.10;69.60;;;0.02;54.59;95180.81;6127986;23;20228;-83
2022/02/24 06:34:58;;;;;;;5.55;4.20;;;1.10;69.70;;;0.07;54.57;95181.25;6103255;23;20417;-83
2022/02/24 06:37:29;;;;;;;9.15;4.53;;;1.20;69.70;;;0.11;54.81;95177.50;6103710;23;20212;-83
2022/02/24 06:39:58;;;;;;;6.97;4.28;;;1.20;69.70;;;0.17;54.70;95169.28;6128196;23;20185;-82
2022/02/24 06:42:26;;;;;;;7.82;4.07;;;1.20;69.70;;;0.23;54.35;95170.56;6103588;23;20182;-83
2022/02/24 06:44:53;;;;;;;7.43;4.45;;;1.30;69.80;;;0.30;54.70;95167.34;6127832;23;20194;-84
2022/02/24 06:47:21;;;;;;;10.13;4.38;;;1.30;69.80;;;0.38;54.67;95155.59;6128998;23;20193;-83
2022/02/24 06:49:48;;;;;;;6.90;4.00;;;1.30;69.80;;;0.46;54.71;95159.22;6079103;23;20256;-83
2022/02/24 06:52:15;;;;;;;8.90;5.68;;;1.40;70.00;;;0.51;54.94;95153.66;6103759;23;20640;-83
2022/02/24 06:54:43;;;;;;;9.70;5.65;;;1.40;70.10;;;0.63;55.00;95151.88;6103059;23;20276;-83
2022/02/24 06:57:11;;;;;;;10.02;6.60;;;1.50;70.20;;;0.65;54.54;95144.84;6103939;23;20636;-83
2022/02/24 06:59:38;;;;;;;10.60;5.82;;;1.50;70.10;;;0.75;54.57;95155.22;6103105;23;20248;-83
2022/02/24 07:02:07;;;;;;;10.05;5.70;;;1.60;70.30;;;0.86;54.53;95155.16;6100556;23;20180;-82
2022/02/24 07:04:35;;;;;;;12.45;5.35;;;1.70;70.40;;;0.95;54.93;95156.16;6127733;23;20566;-83
2022/02/24 07:07:04;;;;;;;10.23;5.35;;;1.80;70.50;;;0.97;54.65;95143.13;6127821;23;20173;-83
2022/02/24 07:09:31;;;;;;;12.32;6.38;;;1.80;70.20;;;1.05;54.96;95143.31;6127237;23;20703;-83
2022/02/24 07:12:00;;;;;;;9.77;5.78;;;1.90;70.20;;;1.14;54.89;95144.31;6103257;23;20260;-82
2022/02/24 07:14:28;;;;;;;9.95;5.70;;;1.90;70.30;;;1.22;54.83;95147.06;6127287;23;20260;-83
2022/02/24 07:16:55;;;;;;;9.00;5.38;;;2.00;70.30;;;1.24;54.66;95140.81;6152395;23;20177;-82
2022/02/24 07:19:22;;;;;;;9.23;5.50;;;2.00;70.30;;;1.33;54.75;95141.00;6127126;23;20202;-83
2022/02/24 07:21:50;;;;;;;8.50;5.05;;;2.10;70.30;;;1.43;54.66;95147.06;6127482;23;20173;-84
2022/02/24 07:24:17;;;;;;;7.45;4.68;;;2.20;70.40;;;1.48;54.90;95139.72;6103432;23;20192;-82
2022/02/24 07:26:44;;;;;;;9.23;5.10;;;2.30;70.50;;;1.57;55.02;95138.91;6127587;23;20165;-82
2022/02/24 07:29:11;;;;;;;10.68;4.93;;;2.30;70.50;;;1.66;54.80;95147.69;6126736;23;20197;-83
2022/02/24 07:31:38;;;;;;;8.23;4.82;;;2.40;70.60;;;1.71;54.83;95136.91;6127070;23;20688;-85
2022/02/24 07:34:06;;;;;;;6.85;4.63;;;2.40;70.60;;;1.83;54.88;95146.22;6127262;23;20173;-83
2022/02/24 07:36:33;;;;;;;6.97;4.70;;;2.50;71.50;;;1.91;54.76;95142.97;6127635;23;20178;-83
2022/02/24 07:39:01;;;;;;;8.45;4.30;;;2.60;70.70;;;2.00;54.70;95149.13;6079124;23;20182;-84
2022/02/24 07:41:28;;;;;;;6.93;4.38;;;2.70;70.70;;;2.08;54.77;95146.69;6127021;23;20201;-84
2022/02/24 07:43:55;;;;;;;15.90;7.45;;;2.70;70.70;;;2.17;54.78;95145.06;6127611;23;20174;-85
2022/02/24 07:46:23;;;;;;;14.68;6.03;;;2.80;70.90;;;2.24;54.80;95144.38;6126882;23;20208;-83
2022/02/24 07:48:52;;;;;;;13.48;5.40;;;2.90;70.90;;;2.30;55.00;95127.50;6102348;23;20181;-83
2022/02/24 07:51:20;;;;;;;11.20;5.50;;;2.90;70.90;;;2.43;54.85;95134.19;6103538;23;20216;-84
2022/02/24 07:53:47;;;;;;;9.65;5.43;;;3.10;71.00;;;2.52;54.81;95130.78;6103840;23;20186;-83
2022/02/24 07:56:16;;;;;;;6.38;4.05;;;3.10;71.00;;;2.58;54.68;95119.88;6105295;23;20264;-82
2022/02/24 07:58:43;;;;;;;13.50;6.50;;;3.20;71.10;;;2.75;54.99;95130.50;6105663;23;20195;-84
2022/02/24 08:01:11;;;;;;;10.25;5.90;;;3.20;71.10;;;2.82;55.11;95121.22;6105791;23;20544;-84
2022/02/24 08:03:38;;;;;;;8.27;4.85;;;3.40;71.30;;;2.98;55.11;95131.84;6103520;23;20659;-84
2022/02/24 08:06:05;;;;;;;9.20;5.10;;;3.50;71.40;;;3.09;55.17;95128.28;6102510;23;20197;-84
2022/02/24 08:08:32;;;;;;;12.65;5.95;;;3.60;71.40;;;3.19;54.92;95120.47;6126906;23;20216;-84
2022/02/24 08:11:00;;;;;;;9.15;5.28;;;3.70;71.50;;;3.32;54.78;95122.72;6079875;23;20205;-84
2022/02/24 08:13:28;;;;;;;8.85;5.35;;;3.70;71.50;;;3.41;54.92;95116.72;6105819;23;20532;-83
2022/02/24 08:15:55;;;;;;;9.15;5.32;;;3.80;71.60;;;3.53;54.89;95115.56;6129681;23;20652;-85
2022/02/24 08:18:22;;;;;;;8.35;4.53;;;3.90;71.60;;;3.63;54.89;95110.31;6105038;23;20260;-85
2022/02/24 08:20:50;;;;;;;8.73;5.28;;;4.10;71.80;;;3.77;54.54;95113.41;6105457;23;20244;-85
2022/02/24 08:23:18;;;;;;;7.85;4.80;;;4.20;71.70;;;3.88;54.61;95102.00;6129709;23;20191;-86
2022/02/24 08:25:45;;;;;;;11.20;5.85;;;4.30;71.60;;;3.96;54.55;95095.13;6127798;23;20217;-84
2022/02/24 08:28:13;;;;;;;11.07;5.80;;;4.40;71.50;;;4.02;54.73;95098.94;6102899;23;20176;-85
2022/02/24 08:30:40;;;;;;;8.07;5.28;;;4.50;71.40;;;4.09;54.54;95093.94;6126605;23;20284;-84
2022/02/24 08:33:07;;;;;;;9.35;4.95;;;4.60;71.40;;;4.25;54.65;95090.72;6127083;23;20213;-84
2022/02/24 08:35:36;;;;;;;7.22;4.85;;;4.60;71.40;;;4.35;54.63;95083.66;6103627;23;20193;-85
2022/02/24 08:38:05;;;;;;;8.95;4.00;;;4.80;71.50;;;4.50;54.79;95086.53;6127235;23;20208;-85
2022/02/24 08:40:32;;;;;;;7.75;4.20;;;4.80;71.30;;;4.61;54.23;95086.31;6078758;23;20263;-85
2022/02/24 08:43:01;;;;;;;10.40;4.28;;;4.90;71.30;;;4.72;54.57;95082.66;6104410;23;20224;-85
2022/02/24 08:45:31;;;;;;;8.45;4.60;;;5.00;71.40;;;4.85;54.42;95076.25;6127992;23;20224;-85
2022/02/24 08:47:58;;;;;;;8.60;4.10;;;5.10;71.30;;;4.93;54.38;95077.13;6129482;23;20185;-85
2022/02/24 08:50:25;;;;;;;7.97;4.70;;;5.30;71.40;;;5.08;54.27;95079.16;6129002;23;20193;-85
2022/02/24 08:53:07;;;;;;;7.95;4.32;;;5.40;71.30;;;5.18;54.23;95076.47;6133194;23;20212;-85
2022/02/24 08:55:37;;;;;;;58.75;25.98;;;5.40;71.20;;;5.27;53.95;95078.13;6105632;23;20209;-85
2022/02/24 08:58:06;;;;;;;25.80;14.73;;;5.60;71.20;;;5.35;54.11;95075.56;6105427;23;20633;-85
2022/02/24 09:00:35;;;;;;;16.60;9.30;;;5.70;71.10;;;5.43;54.13;95069.56;6129265;23;20246;-81
2022/02/24 09:03:03;;;;;;;13.07;6.47;;;5.70;71.00;;;5.53;54.39;95072.06;6103413;23;20264;-80
2022/02/24 09:05:33;;;;;;;7.80;5.20;;;5.80;71.10;;;5.63;54.19;95070.16;6127718;23;20189;-80
2022/02/24 09:08:00;;;;;;;6.43;4.32;;;5.90;71.10;;;5.72;54.27;95060.59;6103809;23;20244;-79
2022/02/24 09:10:30;;;;;;;6.57;4.43;;;5.90;71.00;;;5.81;54.01;95064.03;6104795;23;20193;-80
2022/02/24 09:12:57;;;;;;;10.43;4.95;;;6.00;71.00;;;5.89;53.78;95064.06;6128832;23;20280;-80
2022/02/24 09:15:25;;;;;;;7.88;4.32;;;6.10;70.90;;;5.95;53.75;95063.41;6104759;23;20217;-81
2022/02/24 09:17:53;;;;;;;9.27;5.72;;;6.20;71.80;;;6.03;53.50;95057.44;6128797;23;20170;-80
2022/02/24 09:20:20;;;;;;;7.55;4.97;;;6.30;70.90;;;6.11;53.71;95057.47;6128796;23;20193;-81
2022/02/24 09:22:47;;;;;;;7.45;4.93;;;6.40;70.80;;;6.16;53.51;95052.56;6103332;23;20230;-79
2022/02/24 09:25:15;;;;;;;8.32;5.95;;;6.40;70.80;;;6.27;53.57;95050.66;6104232;23;20703;-80
2022/02/24 09:27:42;;;;;;;8.27;4.47;;;6.50;70.90;;;6.33;53.47;95050.00;6104874;23;20165;-81
2022/02/24 09:30:10;;;;;;;6.13;4.20;;;6.60;70.70;;;6.44;53.44;95049.66;6104349;23;20644;-80
2022/02/24 09:32:39;;;;;;;7.80;5.03;;;6.70;70.80;;;6.51;53.48;95042.84;6104751;23;20664;-80
2022/02/24 09:35:07;;;;;;;9.93;6.55;;;6.70;70.70;;;6.59;53.35;95036.00;6128270;23;20280;-81
2022/02/24 09:37:36;;;;;;;8.57;5.30;;;6.80;70.60;;;6.66;53.17;95042.19;6127924;23;20650;-82
2022/02/24 09:40:09;;;;;;;7.75;5.13;;;6.90;70.60;;;6.72;53.25;95029.28;6104780;23;20573;-81
2022/02/24 09:42:57;;;;;;;7.03;5.28;;;6.90;70.60;;;6.79;53.03;95031.25;6107793;23;20169;-80
2022/02/24 09:45:25;;;;;;;9.63;5.32;;;7.10;70.60;;;6.86;53.26;95024.38;6128215;23;20185;-81
2022/02/24 09:47:56;;;;;;;7.50;5.07;;;7.10;70.50;;;6.94;53.00;95034.81;6106166;23;20162;-81
2022/02/24 09:50:26;;;;;;;8.00;4.47;;;7.20;70.50;;;7.01;53.08;95037.56;6129106;23;20216;-81
2022/02/24 09:52:53;;;;;;;10.73;6.22;;;7.20;70.40;;;7.05;53.59;95025.81;6104206;23;20189;-81
2022/02/24 09:55:20;;;;;;;7.65;5.43;;;7.30;71.30;;;7.15;53.09;95025.63;6104120;23;20197;-81
2022/02/24 09:57:48;;;;;;;8.45;4.97;;;7.30;70.30;;;7.24;53.27;95027.25;6106411;23;20231;-80
2022/02/24 10:00:15;;;;;;;6.28;4.45;;;7.40;70.40;;;7.31;53.05;95020.38;6130272;23;20353;-81
2022/02/24 10:02:45;;;;;;;7.75;4.60;;;7.50;70.30;;;7.42;52.87;95019.19;6155058;23;20177;-82
2022/02/24 10:05:15;;;;;;;8.60;4.80;;;7.60;70.40;;;7.52;52.83;95016.38;6106020;23;20224;-81
2022/02/24 10:07:43;;;;;;;7.50;4.05;;;7.70;70.40;;;7.63;52.92;95020.38;6129795;23;20224;-79
2022/02/24 10:10:31;;;;;;;8.57;3.97;;;7.70;70.30;;;7.74;52.63;95004.34;6129522;23;20251;-81
2022/02/24 10:13:13;;;;;;;8.80;4.18;;;7.80;70.20;;;7.88;52.84;95007.22;6130106;23;20193;-81
2022/02/24 10:16:04;;;;;;;7.28;4.47;;;7.90;70.50;;;7.96;52.69;95000.13;6105657;23;20595;-80
2022/02/24 10:18:33;;;;;;;6.43;3.92;;;8.00;70.10;;;8.04;52.83;94998.47;6106115;23;20181;-80
2022/02/24 10:21:04;;;;;;;9.00;3.95;;;8.10;70.20;;;8.13;52.36;95000.00;6106405;23;20213;-80
2022/02/24 10:23:38;;;;;;;5.15;3.97;;;8.20;70.20;;;8.21;52.61;94991.31;6105423;23;20182;-80
2022/02/24 10:26:09;;;;;;;9.30;4.25;;;8.30;70.30;;;8.32;52.45;94990.91;6105629;23;20232;-81
2022/02/24 10:28:52;;;;;;;7.57;4.30;;;8.30;70.30;;;8.45;52.36;94987.69;6154341;23;20158;-80
2022/02/24 10:31:25;;;;;;;7.25;4.85;;;8.40;70.30;;;8.58;52.56;94987.94;6105101;23;20248;-81